createdAt,value
2018-12-08T00:00:43.981Z,94.27
2018-12-08T00:01:46.251Z,94.08
2018-12-08T00:02:49.253Z,94.46
2018-12-08T00:03:56.251Z,95.22
2018-12-08T00:04:43.755Z,93.08
2018-12-08T00:05:57.760Z,93.60
2018-12-08T00:07:07.473Z,94.08
2018-12-08T00:08:23.252Z,93.51
2018-12-08T00:09:19.752Z,93.79
2018-12-08T00:10:37.257Z,92.65
2018-12-08T00:11:35.982Z,93.41
2018-12-08T00:12:27.255Z,93.13
2018-12-08T00:13:48.257Z,93.51
2018-12-08T00:14:32.906Z,92.56
2018-12-08T00:15:44.874Z,92.56
2018-12-08T00:16:51.283Z,92.36
2018-12-08T00:17:54.257Z,92.65
2018-12-08T00:18:59.797Z,93.23
2018-12-08T00:20:11.783Z,92.46
2018-12-08T00:21:26.747Z,92.08
2018-12-08T00:22:15.795Z,91.61
2018-12-08T00:23:34.645Z,92.65
2018-12-08T00:24:34.652Z,92.84
2018-12-08T00:25:47.976Z,92.56
2018-12-08T00:26:50.542Z,92.36
2018-12-08T00:28:00.586Z,91.70
2018-12-08T00:28:59.571Z,91.03
2018-12-08T00:30:07.464Z,91.03
2018-12-08T00:31:06.455Z,91.32
2018-12-08T00:32:21.614Z,91.70
2018-12-08T00:33:24.393Z,91.51
2018-12-08T00:34:16.211Z,91.61
2018-12-08T00:35:30.752Z,90.84
2018-12-08T00:36:22.572Z,91.03
2018-12-08T00:37:29.539Z,91.03
2018-12-08T00:38:48.493Z,90.47
2018-12-08T00:39:58.246Z,90.33
2018-12-08T00:41:05.306Z,89.89
2018-12-08T00:41:55.695Z,91.22
2018-12-08T00:43:16.688Z,90.94
2018-12-08T00:44:11.269Z,91.13
2018-12-08T00:45:22.035Z,91.22
2018-12-08T00:46:21.774Z,90.18
2018-12-08T00:47:26.037Z,90.56
2018-12-08T00:48:20.623Z,91.13
2018-12-08T00:49:48.481Z,91.70
2018-12-08T00:50:34.152Z,91.13
2018-12-08T00:51:47.883Z,90.75
2018-12-08T00:53:02.124Z,90.47
2018-12-08T00:54:01.214Z,90.75
2018-12-08T00:55:17.807Z,90.37
2018-12-08T00:56:15.880Z,89.61
2018-12-08T00:57:21.725Z,90.84
2018-12-08T00:58:31.052Z,90.66
2018-12-08T00:59:23.989Z,89.89
2018-12-08T01:00:37.923Z,90.56
2018-12-08T01:01:41.105Z,90.28
2018-12-08T01:02:50.126Z,90.56
2018-12-08T01:03:42.453Z,90.37
2018-12-08T01:04:53.421Z,90.47
2018-12-08T01:06:18.419Z,90.08
2018-12-08T01:07:10.335Z,90.28
2018-12-08T01:08:12.388Z,90.66
2018-12-08T01:09:28.158Z,90.56
2018-12-08T01:10:23.271Z,90.75
2018-12-08T01:11:29.219Z,90.66
2018-12-08T01:12:45.398Z,90.47
2018-12-08T01:13:30.373Z,90.28
2018-12-08T01:14:51.151Z,90.56
2018-12-08T01:15:47.269Z,89.51
2018-12-08T01:16:45.620Z,88.85
2018-12-08T01:17:57.115Z,89.32
2018-12-08T01:19:09.926Z,88.85
2018-12-08T01:20:14.955Z,89.32
2018-12-08T01:21:23.463Z,90.08
2018-12-08T01:22:29.925Z,88.94
2018-12-08T01:23:34.949Z,88.85
2018-12-08T01:24:44.175Z,89.89
2018-12-08T01:25:44.649Z,89.89
2018-12-08T01:26:50.845Z,89.70
2018-12-08T01:28:07.856Z,89.70
2018-12-08T01:28:59.462Z,89.99
2018-12-08T01:30:20.362Z,89.42
2018-12-08T01:31:24.831Z,89.14
2018-12-08T01:32:21.279Z,89.99
2018-12-08T01:33:32.173Z,89.14
2018-12-08T01:34:28.591Z,89.51
2018-12-08T01:35:44.477Z,88.94
2018-12-08T01:36:38.750Z,89.14
2018-12-08T01:37:48.590Z,88.46
2018-12-08T01:38:54.436Z,88.85
2018-12-08T01:39:51.475Z,89.89
2018-12-08T01:41:02.441Z,89.32
2018-12-08T01:42:21.805Z,88.94
2018-12-08T01:43:08.294Z,88.09
2018-12-08T01:44:14.242Z,88.94
2018-12-08T01:45:17.632Z,89.14
2018-12-08T01:46:19.177Z,88.56
2018-12-08T01:47:35.364Z,89.04
2018-12-08T01:48:48.392Z,89.14
2018-12-08T01:49:50.134Z,89.70
2018-12-08T01:50:43.082Z,88.75
2018-12-08T01:51:55.474Z,89.04
2018-12-08T01:52:54.051Z,88.85
2018-12-08T01:54:00.000Z,89.32
2018-12-08T01:55:18.953Z,89.14
2018-12-08T01:56:14.865Z,88.94
2018-12-08T01:57:22.861Z,88.09
2018-12-08T01:58:26.967Z,88.85
2018-12-08T01:59:53.192Z,89.51
2018-12-08T02:00:45.842Z,89.32
2018-12-08T02:01:45.736Z,88.37
2018-12-08T02:03:06.632Z,88.46
2018-12-08T02:04:03.792Z,89.23
2018-12-08T02:05:23.752Z,88.85
2018-12-08T02:06:11.782Z,89.61
2018-12-08T02:07:33.295Z,88.46
2018-12-08T02:08:24.494Z,87.04
2018-12-08T02:09:34.744Z,87.23
2018-12-08T02:10:37.418Z,86.94
2018-12-08T02:11:26.362Z,88.37
2018-12-08T02:12:49.410Z,87.99
2018-12-08T02:13:50.341Z,88.28
2018-12-08T02:14:46.357Z,88.37
2018-12-08T02:16:03.566Z,87.90
2018-12-08T02:17:06.243Z,87.61
2018-12-08T02:18:08.394Z,87.90
2018-12-08T02:19:13.218Z,86.94
2018-12-08T02:20:15.172Z,86.57
2018-12-08T02:21:26.138Z,87.42
2018-12-08T02:22:36.082Z,86.76
2018-12-08T02:23:25.031Z,86.94
2018-12-08T02:24:34.049Z,87.32
2018-12-08T02:25:51.978Z,87.32
2018-12-08T02:26:51.988Z,87.13
2018-12-08T02:28:06.027Z,87.90
2018-12-08T02:29:12.487Z,87.23
2018-12-08T02:30:06.970Z,87.13
2018-12-08T02:31:06.872Z,87.32
2018-12-08T02:32:11.795Z,87.04
2018-12-08T02:33:25.840Z,86.76
2018-12-08T02:34:26.763Z,87.32
2018-12-08T02:35:55.652Z,87.13
2018-12-08T02:36:58.113Z,87.71
2018-12-08T02:37:51.681Z,87.32
2018-12-08T02:39:02.741Z,87.99
2018-12-08T02:40:00.593Z,87.71
2018-12-08T02:41:07.570Z,87.90
2018-12-08T02:42:22.455Z,87.90
2018-12-08T02:43:24.494Z,87.71
2018-12-08T02:44:11.788Z,87.52
2018-12-08T02:45:30.437Z,88.28
2018-12-08T02:46:54.311Z,88.28
2018-12-08T02:47:54.517Z,88.46
2018-12-08T02:48:46.333Z,88.28
2018-12-08T02:49:47.159Z,87.61
2018-12-08T02:50:47.166Z,87.90
2018-12-08T02:52:02.230Z,87.23
2018-12-08T02:53:13.095Z,87.13
2018-12-08T02:54:15.149Z,87.23
2018-12-08T02:55:19.049Z,87.23
2018-12-08T02:56:37.081Z,87.42
2018-12-08T02:57:46.203Z,87.52
2018-12-08T02:59:01.982Z,87.71
2018-12-08T02:59:41.613Z,87.42
2018-12-08T03:01:01.077Z,88.09
2018-12-08T03:01:49.820Z,87.99
2018-12-08T03:02:54.849Z,86.94
2018-12-08T03:04:02.844Z,87.85
2018-12-08T03:05:13.911Z,87.94
2018-12-08T03:05:59.787Z,87.52
2018-12-08T03:07:41.781Z,87.42
2018-12-08T03:08:30.627Z,86.94
2018-12-08T03:09:34.639Z,86.66
2018-12-08T03:10:26.552Z,86.66
2018-12-08T03:11:32.602Z,86.66
2018-12-08T03:12:56.573Z,86.76
2018-12-08T03:13:50.439Z,86.66
2018-12-08T03:14:57.512Z,87.13
2018-12-08T03:16:14.418Z,86.66
2018-12-08T03:17:20.571Z,86.47
2018-12-08T03:17:58.358Z,87.13
2018-12-08T03:19:25.509Z,87.32
2018-12-08T03:20:35.348Z,86.57
2018-12-08T03:21:37.302Z,86.66
2018-12-08T03:22:42.225Z,86.22
2018-12-08T03:23:31.181Z,86.66
2018-12-08T03:24:51.150Z,86.66
2018-12-08T03:25:52.183Z,86.66
2018-12-08T03:26:52.397Z,87.32
2018-12-08T03:28:01.244Z,87.23
2018-12-08T03:29:28.052Z,87.37
2018-12-08T03:30:23.171Z,86.70
2018-12-08T03:31:22.026Z,86.76
2018-12-08T03:32:04.932Z,86.28
2018-12-08T03:33:33.922Z,86.47
2018-12-08T03:34:44.578Z,86.28
2018-12-08T03:35:54.009Z,87.46
2018-12-08T03:36:41.832Z,87.42
2018-12-08T03:38:00.794Z,86.94
2018-12-08T03:38:53.832Z,87.23
2018-12-08T03:40:18.110Z,87.23
2018-12-08T03:41:00.712Z,87.37
2018-12-08T03:42:24.690Z,87.23
2018-12-08T03:43:29.819Z,87.32
2018-12-08T03:44:35.820Z,87.85
2018-12-08T03:45:42.429Z,86.90
2018-12-08T03:46:44.584Z,86.61
2018-12-08T03:47:54.730Z,87.27
2018-12-08T03:48:40.712Z,86.32
2018-12-08T03:49:49.623Z,86.99
2018-12-08T03:51:22.504Z,87.18
2018-12-08T03:52:10.436Z,87.94
2018-12-08T03:53:29.790Z,86.90
2018-12-08T03:54:23.349Z,86.99
2018-12-08T03:55:38.307Z,86.66
2018-12-08T03:56:43.029Z,87.04
2018-12-08T03:57:35.459Z,86.61
2018-12-08T03:58:46.320Z,87.08
2018-12-08T03:59:51.244Z,86.70
2018-12-08T04:00:55.676Z,86.70
2018-12-08T04:02:01.292Z,86.76
2018-12-08T04:02:56.184Z,86.70
2018-12-08T04:04:31.211Z,86.70
2018-12-08T04:05:06.140Z,86.70
2018-12-08T04:06:10.039Z,86.90
2018-12-08T04:07:17.108Z,86.80
2018-12-08T04:08:43.022Z,86.80
2018-12-08T04:09:41.186Z,86.42
2018-12-08T04:11:03.009Z,86.51
2018-12-08T04:12:00.314Z,86.70
2018-12-08T04:13:03.127Z,87.27
2018-12-08T04:14:08.974Z,86.99
2018-12-08T04:14:53.624Z,86.42
2018-12-08T04:16:21.692Z,86.80
2018-12-08T04:17:21.905Z,86.90
2018-12-08T04:18:29.800Z,86.80
2018-12-08T04:19:14.832Z,86.99
2018-12-08T04:20:35.756Z,86.42
2018-12-08T04:21:31.769Z,86.61
2018-12-08T04:23:03.730Z,86.70
2018-12-08T04:23:46.747Z,87.18
2018-12-08T04:25:18.696Z,86.90
2018-12-08T04:25:52.590Z,86.80
2018-12-08T04:27:02.638Z,86.42
2018-12-08T04:28:29.065Z,85.85
2018-12-08T04:29:10.846Z,86.90
2018-12-08T04:30:13.517Z,86.42
2018-12-08T04:31:25.506Z,86.04
2018-12-08T04:32:46.526Z,86.42
2018-12-08T04:33:44.877Z,85.94
2018-12-08T04:34:55.435Z,85.37
2018-12-08T04:36:06.515Z,86.61
2018-12-08T04:37:05.894Z,87.94
2018-12-08T04:37:54.232Z,88.89
2018-12-08T04:39:11.962Z,88.89
2018-12-08T04:40:18.213Z,90.13
2018-12-08T04:41:11.671Z,89.84
2018-12-08T04:42:22.225Z,90.32
2018-12-08T04:43:25.101Z,89.94
2018-12-08T04:45:03.103Z,90.51
2018-12-08T04:45:49.083Z,90.70
2018-12-08T04:46:55.235Z,90.99
2018-12-08T04:48:00.057Z,90.89
2018-12-08T04:49:26.469Z,90.61
2018-12-08T04:50:13.576Z,90.51
2018-12-08T04:51:06.019Z,91.08
2018-12-08T04:52:22.924Z,90.89
2018-12-08T04:53:23.526Z,91.46
2018-12-08T04:54:14.857Z,91.65
2018-12-08T04:55:24.793Z,91.08
2018-12-08T04:56:23.776Z,90.94
2018-12-08T04:57:37.813Z,90.99
2018-12-08T04:58:57.390Z,91.17
2018-12-08T04:59:52.783Z,91.75
2018-12-08T05:00:56.169Z,90.32
2018-12-08T05:02:12.666Z,91.13
2018-12-08T05:03:13.401Z,90.89
2018-12-08T05:04:12.682Z,90.66
2018-12-08T05:05:02.559Z,90.42
2018-12-08T05:06:33.586Z,90.70
2018-12-08T05:07:59.505Z,90.28
2018-12-08T05:08:36.580Z,90.70
2018-12-08T05:10:05.669Z,89.70
2018-12-08T05:10:50.419Z,89.99
2018-12-08T05:12:12.440Z,89.65
2018-12-08T05:13:07.845Z,90.22
2018-12-08T05:14:13.378Z,89.47
2018-12-08T05:15:11.081Z,89.84
2018-12-08T05:16:32.339Z,90.51
2018-12-08T05:17:28.459Z,90.61
2018-12-08T05:18:35.224Z,90.51
2018-12-08T05:19:49.465Z,90.89
2018-12-08T05:20:49.167Z,90.99
2018-12-08T05:21:47.128Z,90.51
2018-12-08T05:23:00.142Z,90.89
2018-12-08T05:24:10.183Z,91.08
2018-12-08T05:24:59.059Z,91.08
2018-12-08T05:26:08.053Z,90.99
2018-12-08T05:26:51.061Z,91.42
2018-12-08T05:28:12.694Z,91.94
2018-12-08T05:29:07.977Z,92.46
2018-12-08T05:30:22.014Z,92.41
2018-12-08T05:31:31.454Z,92.32
2018-12-08T05:32:21.935Z,92.41
2018-12-08T05:33:35.863Z,92.84
2018-12-08T05:34:39.764Z,92.36
2018-12-08T05:35:55.857Z,92.56
2018-12-08T05:37:05.799Z,92.41
2018-12-08T05:38:20.751Z,92.75
2018-12-08T05:39:04.690Z,91.80
2018-12-08T05:40:19.753Z,92.03
2018-12-08T05:41:31.119Z,92.46
2018-12-08T05:42:35.634Z,93.32
2018-12-08T05:43:30.625Z,93.51
2018-12-08T05:45:14.772Z,93.04
2018-12-08T05:45:45.185Z,92.56
2018-12-08T05:46:53.488Z,93.23
2018-12-08T05:48:05.480Z,93.41
2018-12-08T05:49:27.402Z,93.60
2018-12-08T05:50:13.384Z,93.60
2018-12-08T05:51:13.391Z,93.60
2018-12-08T05:52:25.381Z,94.37
2018-12-08T05:53:32.355Z,94.46
2018-12-08T05:54:25.603Z,94.08
2018-12-08T05:55:46.300Z,94.46
2018-12-08T05:56:47.329Z,94.08
2018-12-08T05:57:54.301Z,94.37
2018-12-08T05:59:02.093Z,94.84
2018-12-08T05:59:56.058Z,93.70
2018-12-08T06:00:49.111Z,93.32
2018-12-08T06:02:04.062Z,93.89
2018-12-08T06:03:03.971Z,93.51
2018-12-08T06:04:22.001Z,94.08
2018-12-08T06:05:23.957Z,94.08
2018-12-08T06:06:41.884Z,94.37
2018-12-08T06:07:37.796Z,94.84
2018-12-08T06:08:40.573Z,94.93
2018-12-08T06:09:47.953Z,95.03
2018-12-08T06:10:53.901Z,95.03
2018-12-08T06:12:00.668Z,94.56
2018-12-08T06:13:03.953Z,95.60
2018-12-08T06:14:21.680Z,95.79
2018-12-08T06:15:24.656Z,95.79
2018-12-08T06:16:26.008Z,96.08
2018-12-08T06:17:32.568Z,96.08
2018-12-08T06:18:31.543Z,95.03
2018-12-08T06:19:40.875Z,95.32
2018-12-08T06:20:53.374Z,95.12
2018-12-08T06:21:53.381Z,96.26
2018-12-08T06:22:51.752Z,96.17
2018-12-08T06:23:58.313Z,96.36
2018-12-08T06:25:13.276Z,96.26
2018-12-08T06:26:17.279Z,96.36
2018-12-08T06:27:17.185Z,97.03
2018-12-08T06:28:25.078Z,96.55
2018-12-08T06:29:30.114Z,95.79
2018-12-08T06:30:49.161Z,96.17
2018-12-08T06:31:40.467Z,96.17
2018-12-08T06:32:46.313Z,96.17
2018-12-08T06:33:57.891Z,95.60
2018-12-08T06:34:59.845Z,95.70
2018-12-08T06:35:52.174Z,95.22
2018-12-08T06:37:18.811Z,95.79
2018-12-08T06:38:14.210Z,95.98
2018-12-08T06:39:31.012Z,95.60
2018-12-08T06:40:19.029Z,95.51
2018-12-08T06:41:30.625Z,96.26
2018-12-08T06:42:34.119Z,96.17
2018-12-08T06:43:51.631Z,96.36
2018-12-08T06:44:54.098Z,95.51
2018-12-08T06:45:43.563Z,95.89
2018-12-08T06:47:08.551Z,95.51
2018-12-08T06:48:13.477Z,95.41
2018-12-08T06:49:19.937Z,94.56
2018-12-08T06:50:22.404Z,95.32
2018-12-08T06:51:19.853Z,94.37
2018-12-08T06:52:30.306Z,94.93
2018-12-08T06:53:35.331Z,94.37
2018-12-08T06:54:31.327Z,94.27
2018-12-08T06:55:51.424Z,93.79
2018-12-08T06:56:37.301Z,94.18
2018-12-08T06:57:43.664Z,94.37
2018-12-08T06:58:59.644Z,93.98
2018-12-08T07:00:23.103Z,93.23
2018-12-08T07:01:20.909Z,94.46
2018-12-08T07:02:13.084Z,93.60
2018-12-08T07:03:22.207Z,94.18
2018-12-08T07:04:35.935Z,93.89
2018-12-08T07:05:35.944Z,92.94
2018-12-08T07:06:22.845Z,92.94
2018-12-08T07:07:46.816Z,92.65
2018-12-08T07:08:47.377Z,92.56
2018-12-08T07:10:11.720Z,92.46
2018-12-08T07:11:03.741Z,92.94
2018-12-08T07:12:17.677Z,92.56
2018-12-08T07:13:03.656Z,92.46
2018-12-08T07:14:25.578Z,92.08
2018-12-08T07:15:24.563Z,93.32
2018-12-08T07:16:21.500Z,92.94
2018-12-08T07:17:38.515Z,93.04
2018-12-08T07:18:26.941Z,92.65
2018-12-08T07:19:42.420Z,92.65
2018-12-08T07:20:52.762Z,92.84
2018-12-08T07:22:00.862Z,92.27
2018-12-08T07:23:17.357Z,92.56
2018-12-08T07:23:53.299Z,91.70
2018-12-08T07:25:18.297Z,92.32
2018-12-08T07:26:26.293Z,92.51
2018-12-08T07:27:30.191Z,92.60
2018-12-08T07:28:21.362Z,92.22
2018-12-08T07:29:35.637Z,91.46
2018-12-08T07:30:35.902Z,91.46
2018-12-08T07:32:00.027Z,92.46
2018-12-08T07:32:53.998Z,92.60
2018-12-08T07:34:07.725Z,92.79
2018-12-08T07:34:59.949Z,92.60
2018-12-08T07:36:10.711Z,93.27
2018-12-08T07:37:15.328Z,92.51
2018-12-08T07:38:19.026Z,93.65
2018-12-08T07:39:18.828Z,94.42
2018-12-08T07:40:17.811Z,94.32
2018-12-08T07:41:52.844Z,94.32
2018-12-08T07:42:45.376Z,94.89
2018-12-08T07:43:59.719Z,94.79
2018-12-08T07:45:06.794Z,95.22
2018-12-08T07:45:59.634Z,95.22
2018-12-08T07:46:55.649Z,95.27
2018-12-08T07:47:55.554Z,95.56
2018-12-08T07:49:12.634Z,95.75
2018-12-08T07:50:22.913Z,96.22
2018-12-08T07:51:32.548Z,95.12
2018-12-08T07:52:22.521Z,95.60
2018-12-08T07:53:36.662Z,96.36
2018-12-08T07:54:51.415Z,96.74
2018-12-08T07:55:53.370Z,96.17
2018-12-08T07:56:48.358Z,97.03
2018-12-08T07:57:50.929Z,97.13
2018-12-08T07:59:08.345Z,97.65
2018-12-08T08:00:13.269Z,97.60
2018-12-08T08:01:20.249Z,97.50
2018-12-08T08:02:27.217Z,97.41
2018-12-08T08:03:26.711Z,97.98
2018-12-08T08:04:38.288Z,97.55
2018-12-08T08:05:35.227Z,97.03
2018-12-08T08:06:43.120Z,96.89
2018-12-08T08:07:54.093Z,96.84
2018-12-08T08:08:58.084Z,96.36
2018-12-08T08:10:22.062Z,96.84
2018-12-08T08:11:07.938Z,97.13
2018-12-08T08:12:20.981Z,97.69
2018-12-08T08:13:08.979Z,97.31
2018-12-08T08:14:22.809Z,97.50
2018-12-08T08:15:24.868Z,97.69
2018-12-08T08:16:32.760Z,98.46
2018-12-08T08:17:49.766Z,97.41
2018-12-08T08:18:35.759Z,97.41
2018-12-08T08:19:45.175Z,97.69
2018-12-08T08:20:52.660Z,97.79
2018-12-08T08:21:56.163Z,97.31
2018-12-08T08:23:01.788Z,96.74
2018-12-08T08:24:18.184Z,97.22
2018-12-08T08:25:21.682Z,96.74
2018-12-08T08:26:21.588Z,97.50
2018-12-08T08:27:27.834Z,97.41
2018-12-08T08:28:40.245Z,97.22
2018-12-08T08:29:33.484Z,97.79
2018-12-08T08:30:37.386Z,97.88
2018-12-08T08:31:55.415Z,97.50
2018-12-08T08:32:49.383Z,97.69
2018-12-08T08:34:02.499Z,98.08
2018-12-08T08:35:04.758Z,97.41
2018-12-08T08:36:21.256Z,97.41
2018-12-08T08:37:16.915Z,98.08
2018-12-08T08:38:25.782Z,97.69
2018-12-08T08:39:37.165Z,97.98
2018-12-08T08:40:25.185Z,97.88
2018-12-08T08:41:37.173Z,98.08
2018-12-08T08:42:36.157Z,97.88
2018-12-08T08:43:43.437Z,97.41
2018-12-08T08:44:46.008Z,97.50
2018-12-08T08:46:00.046Z,98.08
2018-12-08T08:47:10.395Z,98.46
2018-12-08T08:48:07.960Z,98.08
2018-12-08T08:49:24.955Z,98.36
2018-12-08T08:50:12.573Z,98.74
2018-12-08T08:51:20.874Z,97.60
2018-12-08T08:52:21.765Z,97.60
2018-12-08T08:53:22.839Z,97.69
2018-12-08T08:54:49.884Z,97.60
2018-12-08T08:55:49.790Z,97.79
2018-12-08T08:57:00.754Z,97.93
2018-12-08T08:57:55.642Z,97.69
2018-12-08T08:59:02.717Z,97.13
2018-12-08T09:00:18.615Z,97.84
2018-12-08T09:01:16.767Z,98.13
2018-12-08T09:02:27.525Z,98.13
2018-12-08T09:03:33.474Z,98.69
2018-12-08T09:04:35.428Z,98.50
2018-12-08T09:05:44.446Z,97.74
2018-12-08T09:06:54.388Z,97.74
2018-12-08T09:07:47.434Z,97.74
2018-12-08T09:08:56.452Z,98.13
2018-12-08T09:10:04.353Z,98.79
2018-12-08T09:11:05.276Z,98.60
2018-12-08T09:12:33.241Z,98.13
2018-12-08T09:13:38.269Z,98.50
2018-12-08T09:14:37.151Z,99.17
2018-12-08T09:15:36.138Z,98.41
2018-12-08T09:16:42.561Z,98.41
2018-12-08T09:17:49.057Z,98.36
2018-12-08T09:18:43.128Z,98.50
2018-12-08T09:20:00.135Z,98.98
2018-12-08T09:21:22.979Z,99.27
2018-12-08T09:22:21.153Z,98.98
2018-12-08T09:23:16.958Z,99.27
2018-12-08T09:24:02.935Z,99.17
2018-12-08T09:25:20.868Z,99.46
2018-12-08T09:26:29.783Z,99.17
2018-12-08T09:27:25.803Z,99.65
2018-12-08T09:28:48.746Z,99.46
2018-12-08T09:29:42.301Z,99.08
2018-12-08T09:30:34.733Z,99.27
2018-12-08T09:32:08.636Z,99.08
2018-12-08T09:32:49.703Z,99.17
2018-12-08T09:34:13.572Z,99.17
2018-12-08T09:35:18.700Z,99.99
2018-12-08T09:36:20.013Z,99.99
2018-12-08T09:37:10.732Z,99.99
2018-12-08T09:38:29.478Z,99.99
2018-12-08T09:39:43.721Z,99.46
2018-12-08T09:40:49.360Z,99.17
2018-12-08T09:41:54.493Z,99.08
2018-12-08T09:42:51.323Z,99.46
2018-12-08T09:43:53.286Z,99.08
2018-12-08T09:44:53.296Z,99.08
2018-12-08T09:46:02.313Z,99.17
2018-12-08T09:47:03.240Z,99.27
2018-12-08T09:48:38.270Z,99.93
2018-12-08T09:49:12.480Z,98.69
2018-12-08T09:50:24.975Z,98.69
2018-12-08T09:51:37.168Z,99.17
2018-12-08T09:52:43.118Z,99.99
2018-12-08T09:53:44.253Z,99.99
2018-12-08T09:55:10.887Z,99.99
2018-12-08T09:56:03.930Z,99.99
2018-12-08T09:57:09.470Z,98.08
2018-12-08T09:58:10.605Z,96.41
2018-12-08T09:59:33.862Z,96.60
2018-12-08T10:00:31.913Z,95.65
2018-12-08T10:01:49.752Z,94.22
2018-12-08T10:02:37.780Z,93.93
2018-12-08T10:03:54.787Z,93.79
2018-12-08T10:04:28.476Z,93.79
2018-12-08T10:05:47.740Z,92.98
2018-12-08T10:07:25.636Z,92.98
2018-12-08T10:08:19.604Z,93.55
2018-12-08T10:09:08.656Z,93.93
2018-12-08T10:10:40.822Z,94.32
2018-12-08T10:11:28.540Z,94.93
2018-12-08T10:12:46.471Z,95.41
2018-12-08T10:13:27.944Z,95.89
2018-12-08T10:15:01.445Z,96.84
2018-12-08T10:15:33.489Z,97.31
2018-12-08T10:16:58.476Z,97.60
2018-12-08T10:17:50.514Z,98.27
2018-12-08T10:19:13.353Z,98.27
2018-12-08T10:19:54.315Z,98.55
2018-12-08T10:21:32.211Z,99.32
2018-12-08T10:22:28.122Z,99.22
2018-12-08T10:23:29.057Z,98.98
2018-12-08T10:25:03.262Z,99.08
2018-12-08T10:26:10.550Z,99.08
2018-12-08T10:26:57.818Z,99.65
2018-12-08T10:27:59.706Z,99.55
2018-12-08T10:29:12.614Z,99.99
2018-12-08T10:29:59.003Z,99.99
2018-12-08T10:31:24.201Z,99.99
2018-12-08T10:32:39.578Z,99.99
2018-12-08T10:33:15.907Z,99.99
2018-12-08T10:34:19.914Z,99.99
2018-12-08T10:35:45.847Z,99.99
2018-12-08T10:36:42.267Z,99.99
2018-12-08T10:37:41.974Z,99.99
2018-12-08T10:39:07.681Z,99.99
2018-12-08T10:39:48.237Z,99.99
2018-12-08T10:41:00.636Z,99.99
2018-12-08T10:42:10.474Z,99.99
2018-12-08T10:43:41.099Z,99.99
2018-12-08T10:44:25.746Z,99.99
2018-12-08T10:45:35.483Z,99.99
2018-12-08T10:47:14.097Z,99.99
2018-12-08T10:47:54.342Z,99.99
2018-12-08T10:48:48.671Z,99.99
2018-12-08T10:49:59.212Z,99.99
2018-12-08T10:51:13.211Z,99.99
2018-12-08T10:52:10.150Z,99.99
2018-12-08T10:53:23.786Z,99.99
2018-12-08T10:54:59.220Z,99.99
2018-12-08T10:56:13.877Z,99.99
2018-12-08T10:57:08.990Z,99.99
2018-12-08T10:58:03.134Z,99.99
2018-12-08T10:58:58.331Z,99.99
2018-12-08T11:00:14.110Z,99.99
2018-12-08T11:01:36.549Z,99.99
2018-12-08T11:02:25.186Z,99.99
2018-12-08T11:03:52.942Z,99.99
2018-12-08T11:04:44.463Z,99.99
2018-12-08T11:05:40.366Z,99.99
2018-12-08T11:07:54.817Z,99.99
2018-12-08T11:08:31.888Z,99.99
2018-12-08T11:09:49.820Z,99.99
2018-12-08T11:10:49.933Z,99.99
2018-12-08T11:12:37.515Z,99.99
2018-12-08T11:14:11.665Z,99.99
2018-12-08T11:14:43.817Z,99.99
2018-12-08T11:16:18.749Z,99.99
2018-12-08T11:17:11.689Z,99.99
2018-12-08T11:18:07.602Z,99.99
2018-12-08T11:19:17.643Z,99.99
2018-12-08T11:20:29.226Z,99.99
2018-12-08T11:21:42.546Z,99.99
2018-12-08T11:22:59.128Z,99.99
2018-12-08T11:24:17.260Z,99.99
2018-12-08T11:25:22.077Z,99.99
2018-12-08T11:26:39.720Z,99.99
2018-12-08T11:27:25.084Z,99.99
2018-12-08T11:28:27.960Z,99.99
2018-12-08T11:29:44.059Z,99.99
2018-12-08T11:30:32.281Z,99.99
2018-12-08T11:31:43.759Z,99.99
2018-12-08T11:33:19.302Z,99.99
2018-12-08T11:34:33.032Z,99.99
2018-12-08T11:35:49.627Z,99.99
2018-12-08T11:36:53.530Z,99.99
2018-12-08T11:37:22.101Z,99.99
2018-12-08T11:38:41.260Z,99.99
2018-12-08T11:39:39.732Z,99.99
2018-12-08T11:41:00.835Z,99.99
2018-12-08T11:42:26.753Z,99.99
2018-12-08T11:43:11.531Z,99.99
2018-12-08T11:44:17.928Z,99.99
2018-12-08T11:46:00.877Z,99.99
2018-12-08T11:47:07.029Z,99.99
2018-12-08T11:48:05.604Z,99.99
2018-12-08T11:49:11.150Z,99.99
2018-12-08T11:50:03.378Z,99.99
2018-12-08T11:50:55.906Z,99.99
2018-12-08T11:52:18.651Z,99.99
2018-12-08T11:53:10.268Z,99.99
2018-12-08T11:54:19.188Z,99.99
2018-12-08T11:55:30.122Z,99.99
2018-12-08T11:56:35.895Z,99.99
2018-12-08T11:57:35.480Z,99.98
2018-12-08T11:58:38.879Z,99.99
2018-12-08T11:59:54.044Z,99.98
2018-12-08T12:00:45.752Z,99.89
2018-12-08T12:02:01.641Z,99.99
2018-12-08T12:03:22.228Z,99.94
2018-12-08T12:04:05.447Z,99.99
2018-12-08T12:05:00.332Z,99.22
2018-12-08T12:06:13.653Z,99.32
2018-12-08T12:07:44.179Z,99.22
2018-12-08T12:08:47.772Z,99.51
2018-12-08T12:09:42.658Z,99.55
2018-12-08T12:11:08.267Z,99.89
2018-12-08T12:11:40.837Z,99.99
2018-12-08T12:12:53.954Z,99.98
2018-12-08T12:14:02.557Z,99.99
2018-12-08T12:15:07.584Z,99.99
2018-12-08T12:16:03.292Z,99.99
2018-12-08T12:17:02.391Z,99.79
2018-12-08T12:18:24.403Z,99.79
2018-12-08T12:19:49.914Z,99.79
2018-12-08T12:20:33.990Z,99.75
2018-12-08T12:21:40.202Z,99.27
2018-12-08T12:22:43.495Z,99.55
2018-12-08T12:23:48.924Z,99.41
2018-12-08T12:24:57.945Z,99.32
2018-12-08T12:25:52.847Z,99.41
2018-12-08T12:27:06.874Z,99.69
2018-12-08T12:28:03.089Z,99.94
2018-12-08T12:29:36.489Z,99.99
2018-12-08T12:30:31.275Z,99.98
2018-12-08T12:31:19.000Z,99.69
2018-12-08T12:32:27.191Z,99.03
2018-12-08T12:33:37.763Z,99.51
2018-12-08T12:34:36.118Z,99.51
2018-12-08T12:35:48.313Z,99.41
2018-12-08T12:36:45.566Z,99.13
2018-12-08T12:38:09.734Z,99.32
2018-12-08T12:39:03.497Z,99.99
2018-12-08T12:40:09.863Z,99.08
2018-12-08T12:41:06.894Z,98.99
2018-12-08T12:42:10.388Z,98.99
2018-12-08T12:43:50.746Z,98.79
2018-12-08T12:44:34.979Z,97.89
2018-12-08T12:45:36.215Z,97.80
2018-12-08T12:46:32.945Z,97.32
2018-12-08T12:47:37.766Z,95.84
2018-12-08T12:48:52.318Z,93.46
2018-12-08T12:49:56.930Z,92.98
2018-12-08T12:51:01.195Z,93.84
2018-12-08T12:52:09.959Z,93.36
2018-12-08T12:53:14.998Z,93.41
2018-12-08T12:54:12.940Z,93.79
2018-12-08T12:55:11.516Z,94.27
2018-12-08T12:56:29.447Z,94.17
2018-12-08T12:57:41.499Z,93.98
2018-12-08T12:58:29.880Z,93.88
2018-12-08T12:59:39.410Z,95.41
2018-12-08T13:00:55.389Z,93.60
2018-12-08T13:01:43.730Z,92.46
2018-12-08T13:03:02.478Z,93.37
2018-12-08T13:04:29.722Z,93.27
2018-12-08T13:05:12.513Z,94.22
2018-12-08T13:06:33.218Z,93.74
2018-12-08T13:07:36.813Z,93.74
2018-12-08T13:08:39.587Z,93.93
2018-12-08T13:09:29.663Z,95.27
2018-12-08T13:10:55.587Z,95.70
2018-12-08T13:11:57.429Z,95.56
2018-12-08T13:13:18.637Z,95.94
2018-12-08T13:14:20.704Z,94.79
2018-12-08T13:15:25.309Z,95.27
2018-12-08T13:16:33.717Z,93.74
2018-12-08T13:17:21.230Z,94.03
2018-12-08T13:18:15.709Z,94.51
2018-12-08T13:19:32.414Z,95.36
2018-12-08T13:20:47.896Z,95.56
2018-12-08T13:21:48.920Z,95.17
2018-12-08T13:22:49.229Z,96.12
2018-12-08T13:23:47.498Z,95.36
2018-12-08T13:24:54.069Z,95.17
2018-12-08T13:25:57.766Z,94.51
2018-12-08T13:27:07.389Z,93.55
2018-12-08T13:27:58.077Z,94.41
2018-12-08T13:29:24.358Z,95.08
2018-12-08T13:30:48.512Z,95.27
2018-12-08T13:31:34.255Z,96.12
2018-12-08T13:32:28.224Z,95.94
2018-12-08T13:33:44.310Z,95.65
2018-12-08T13:34:44.014Z,95.75
2018-12-08T13:35:35.001Z,95.46
2018-12-08T13:37:06.144Z,94.98
2018-12-08T13:37:54.474Z,94.22
2018-12-08T13:39:06.161Z,95.17
2018-12-08T13:40:13.652Z,95.36
2018-12-08T13:41:23.798Z,95.75
2018-12-08T13:42:10.794Z,95.36
2018-12-08T13:43:27.905Z,94.60
2018-12-08T13:44:13.370Z,94.60
2018-12-08T13:45:31.402Z,94.22
2018-12-08T13:46:48.619Z,94.22
2018-12-08T13:47:45.346Z,94.60
2018-12-08T13:48:52.934Z,94.89
2018-12-08T13:49:56.832Z,94.22
2018-12-08T13:51:05.547Z,95.27
2018-12-08T13:52:15.490Z,94.60
2018-12-08T13:53:12.324Z,94.89
2018-12-08T13:54:29.737Z,94.79
2018-12-08T13:55:34.668Z,94.89
2018-12-08T13:56:37.231Z,94.22
2018-12-08T13:57:32.636Z,95.17
2018-12-08T13:58:41.240Z,94.98
2018-12-08T13:59:52.521Z,94.41
2018-12-08T14:00:55.629Z,94.32
2018-12-08T14:02:05.025Z,94.41
2018-12-08T14:03:04.624Z,93.37
2018-12-08T14:04:03.713Z,93.84
2018-12-08T14:05:31.894Z,93.74
2018-12-08T14:06:14.075Z,93.55
2018-12-08T14:07:46.850Z,93.55